Time;durP1;ratioP1;P1;durP2;ratioP2;P2;SDS_P1;SDS_P2;PMS_P1;PMS_P2;Temp;Humidity;BMP_temperature;BMP_pressure;BME280_temperature;BME280_humidity;BME280_pressure;Samples;Min_cycle;Max_cycle;Signal;HPM_P1;HPM_P2
2021/01/29 00:01:58;;;;;;;13.57;8.35;;;103.00;2227.20;;;;;;4916325;29;20027;-76
2021/01/29 00:04:24;;;;;;;14.45;8.80;;;103.10;2227.20;;;;;;4907650;29;20103;-85
2021/01/29 00:06:50;;;;;;;10.38;7.20;;;103.10;2227.20;;;;;;4894253;29;20032;-84
2021/01/29 00:09:18;;;;;;;12.13;8.50;;;103.00;2227.20;;;;;;4909227;29;20088;-87
2021/01/29 00:11:45;;;;;;;10.55;8.13;;;103.10;2227.20;;;;;;4916355;29;20028;-75
2021/01/29 00:14:11;;;;;;;12.35;7.38;;;103.10;2227.20;;;;;;4916250;29;20063;-86
2021/01/29 00:16:37;;;;;;;13.13;7.93;;;103.10;2227.20;;;;;;4918069;29;20055;-85
2021/01/29 00:19:03;;;;;;;11.85;8.38;;;103.20;2227.20;;;;;;4916062;29;20038;-86
2021/01/29 00:21:29;;;;;;;13.65;9.80;;;103.20;2227.20;;;;;;4916330;29;20047;-80
2021/01/29 00:23:55;;;;;;;14.65;9.32;;;103.30;2227.20;;;;;;4916075;29;20023;-83
2021/01/29 00:26:21;;;;;;;15.00;10.48;;;103.30;2227.20;;;;;;4916762;29;20114;-85
2021/01/29 00:28:46;;;;;;;17.20;11.35;;;103.30;2227.20;;;;;;4898943;29;20068;-86
2021/01/29 00:31:12;;;;;;;13.50;9.05;;;103.30;2227.20;;;;;;4916024;29;20036;-77
2021/01/29 00:33:38;;;;;;;16.63;9.90;;;103.30;2227.20;;;;;;4915270;29;20070;-85
2021/01/29 00:36:04;;;;;;;14.73;9.73;;;103.30;2227.20;;;;;;4917162;29;20036;-78
2021/01/29 00:38:30;;;;;;;15.70;12.32;;;103.20;2227.20;;;;;;4914981;29;20100;-77
2021/01/29 00:40:56;;;;;;;10.43;7.43;;;103.30;2227.20;;;;;;4888615;29;20060;-81
2021/01/29 00:43:21;;;;;;;9.82;7.22;;;128.00;2252.80;;;;;;4914795;29;20057;-85
2021/01/29 00:45:47;;;;;;;10.73;7.45;;;128.00;2252.80;;;;;;4916393;29;20031;-82
2021/01/29 00:48:14;;;;;;;11.93;8.50;;;128.10;2252.80;;;;;;4915656;29;20032;-78
2021/01/29 00:50:40;;;;;;;10.57;6.88;;;128.10;2252.80;;;;;;4916689;29;20084;-83
2021/01/29 00:53:07;;;;;;;12.20;8.50;;;128.10;2252.80;;;;;;4915125;29;20025;-76
2021/01/29 00:55:33;;;;;;;11.40;7.97;;;128.10;2252.80;;;;;;4915569;29;20055;-78
2021/01/29 00:57:59;;;;;;;11.00;7.57;;;128.20;2252.80;;;;;;4919807;29;20036;-77
2021/01/29 01:00:25;;;;;;;13.68;9.80;;;128.20;2252.80;;;;;;4920885;29;20378;-78
2021/01/29 01:02:51;;;;;;;14.40;9.85;;;128.20;2252.80;;;;;;4918882;29;20044;-82
2021/01/29 01:05:19;;;;;;;14.32;9.90;;;128.20;2252.80;;;;;;4919249;29;20051;-75
2021/01/29 01:07:46;;;;;;;13.45;8.98;;;128.20;2252.80;;;;;;4920629;29;20040;-81
2021/01/29 01:10:12;;;;;;;13.77;8.68;;;128.20;2252.80;;;;;;4906187;29;20462;-77
2021/01/29 01:12:38;;;;;;;13.38;9.32;;;128.20;2252.80;;;;;;4908899;29;20454;-79
2021/01/29 01:15:13;;;;;;;12.57;8.52;;;128.10;2252.80;;;;;;4917489;29;20024;-83
2021/01/29 01:17:39;;;;;;;12.05;7.53;;;128.20;2252.80;;;;;;4918889;29;20378;-81
2021/01/29 01:20:08;;;;;;;12.63;8.05;;;128.20;2252.80;;;;;;4919512;29;20025;-84
2021/01/29 01:22:34;;;;;;;12.18;8.05;;;128.30;2252.80;;;;;;4919936;29;20059;-81
2021/01/29 01:25:00;;;;;;;11.48;7.55;;;128.30;2252.80;;;;;;4918752;29;20466;-85
2021/01/29 01:27:25;;;;;;;10.38;7.20;;;128.40;2252.80;;;;;;4918723;29;20028;-80
2021/01/29 01:29:51;;;;;;;9.25;6.60;;;128.40;2252.80;;;;;;4920115;29;20067;-81
2021/01/29 01:32:17;;;;;;;10.18;6.70;;;128.40;2252.80;;;;;;4918697;29;20031;-84
2021/01/29 01:34:42;;;;;;;10.57;6.43;;;128.40;2252.80;;;;;;4918613;29;20106;-79
2021/01/29 01:37:08;;;;;;;11.75;7.45;;;128.50;2252.80;;;;;;4920062;29;20036;-85
2021/01/29 01:39:34;;;;;;;10.25;6.35;;;128.50;2252.80;;;;;;4918338;29;20038;-82
2021/01/29 01:42:00;;;;;;;8.93;6.28;;;128.50;2252.80;;;;;;4901992;29;20039;-85
2021/01/29 01:44:34;;;;;;;11.55;6.97;;;128.60;2252.80;;;;;;4919761;29;20035;-86
2021/01/29 01:47:19;;;;;;;9.45;6.85;;;128.70;2252.80;;;;;;4902684;29;20494;-86
2021/01/29 01:49:45;;;;;;;9.05;6.30;;;128.70;2252.80;;;;;;4913435;29;20032;-86
2021/01/29 01:52:29;;;;;;;7.25;5.18;;;128.80;2252.80;;;;;;4910635;29;20429;-85
2021/01/29 01:55:13;;;;;;;6.78;4.90;;;128.90;2252.80;;;;;;4912890;29;20032;-84
2021/01/29 01:57:41;;;;;;;7.68;5.07;;;128.90;2252.80;;;;;;4918503;29;20091;-86
2021/01/29 02:00:10;;;;;;;7.28;4.97;;;153.60;2252.80;;;;;;4918807;29;20039;-79
2021/01/29 02:02:39;;;;;;;6.05;4.00;;;153.70;2227.20;;;;;;4919599;29;20039;-77
2021/01/29 02:05:27;;;;;;;7.88;4.10;;;153.90;2150.40;;;;;;4905918;29;20072;-77
2021/01/29 02:07:59;;;;;;;7.13;4.38;;;154.00;2176.00;;;;;;4918347;29;20028;-80
2021/01/29 02:10:27;;;;;;;5.90;4.05;;;154.00;2150.40;;;;;;4918206;29;20043;-85
2021/01/29 02:12:53;;;;;;;6.35;4.25;;;154.00;2150.40;;;;;;4918014;29;20036;-77
2021/01/29 02:15:22;;;;;;;5.50;4.00;;;154.00;2124.80;;;;;;4920317;29;20039;-86
2021/01/29 02:18:10;;;;;;;7.60;4.43;;;154.10;2124.80;;;;;;4917071;29;20043;-79
2021/01/29 02:21:14;;;;;;;7.50;3.97;;;154.10;2150.40;;;;;;4919984;29;20036;-78
2021/01/29 02:24:01;;;;;;;6.90;4.13;;;154.10;2124.80;;;;;;4917604;29;20058;-78
2021/01/29 02:26:48;;;;;;;7.35;4.22;;;154.10;2124.80;;;;;;4917563;29;20028;-75
2021/01/29 02:29:55;;;;;;;6.63;4.18;;;154.10;2124.80;;;;;;4918265;29;20034;-79
2021/01/29 02:32:21;;;;;;;6.00;3.97;;;154.10;2099.20;;;;;;4917486;29;20020;-79
2021/01/29 02:35:08;;;;;;;6.43;4.15;;;154.10;2124.80;;;;;;4919741;29;20024;-78
2021/01/29 02:38:11;;;;;;;5.40;4.00;;;154.10;2124.80;;;;;;4917194;29;20040;-74
2021/01/29 02:40:44;;;;;;;5.43;3.70;;;154.10;2099.20;;;;;;4912968;29;20057;-84
2021/01/29 02:43:32;;;;;;;6.00;4.10;;;154.20;2099.20;;;;;;4917113;29;20175;-83
2021/01/29 02:46:10;;;;;;;5.30;3.67;;;154.20;2099.20;;;;;;4918329;29;20024;-85
2021/01/29 02:48:39;;;;;;;6.15;3.85;;;154.20;2099.20;;;;;;4917903;29;20036;-76
2021/01/29 02:51:19;;;;;;;6.65;4.30;;;154.20;2099.20;;;;;;4917418;29;20028;-84
2021/01/29 02:54:14;;;;;;;7.13;4.60;;;154.20;2099.20;;;;;;4918922;29;20028;-81
2021/01/29 02:56:54;;;;;;;6.03;4.38;;;154.20;2073.60;;;;;;4897992;29;20144;-79
2021/01/29 03:00:05;;;;;;;6.53;4.50;;;154.30;2099.20;;;;;;4907166;29;20117;-86
2021/01/29 03:02:53;;;;;;;6.15;4.20;;;154.20;2099.20;;;;;;4841450;29;20049;-75
2021/01/29 03:05:27;;;;;;;5.80;4.03;;;154.20;2099.20;;;;;;4841012;29;20076;-79
2021/01/29 03:08:02;;;;;;;6.75;4.50;;;154.20;2099.20;;;;;;4840391;29;20484;-84
2021/01/29 03:10:36;;;;;;;7.03;4.63;;;154.20;2099.20;;;;;;4841554;29;20042;-86
2021/01/29 03:13:09;;;;;;;6.70;4.63;;;154.20;2099.20;;;;;;4839865;29;20037;-85
2021/01/29 03:15:43;;;;;;;7.70;5.10;;;154.10;2124.80;;;;;;4840568;29;20408;-82
2021/01/29 03:18:11;;;;;;;6.78;5.00;;;154.10;2124.80;;;;;;4840402;29;20046;-81
2021/01/29 03:20:56;;;;;;;7.78;5.00;;;154.10;2124.80;;;;;;4840013;29;20046;-83
2021/01/29 03:23:42;;;;;;;6.63;4.70;;;154.10;2124.80;;;;;;4840752;29;20140;-82
2021/01/29 03:26:35;;;;;;;8.27;5.10;;;154.10;2124.80;;;;;;4840219;29;20088;-85
2021/01/29 03:29:05;;;;;;;9.27;5.28;;;154.10;2150.40;;;;;;4839925;29;20053;-85
2021/01/29 03:31:33;;;;;;;7.97;5.20;;;154.00;2150.40;;;;;;4841233;29;20080;-76
2021/01/29 03:34:13;;;;;;;7.30;5.00;;;154.00;2201.60;;;;;;4839523;29;20045;-75
2021/01/29 03:36:45;;;;;;;8.30;5.45;;;153.90;2227.20;;;;;;4840446;29;20037;-81
2021/01/29 03:39:18;;;;;;;8.02;5.20;;;153.90;2252.80;;;;;;4885192;29;20593;-79
2021/01/29 03:41:50;;;;;;;8.18;5.25;;;153.90;2252.80;;;;;;4916774;29;20026;-80
2021/01/29 03:44:31;;;;;;;7.78;5.50;;;153.80;2252.80;;;;;;4916085;29;20059;-74
2021/01/29 03:47:03;;;;;;;8.75;5.80;;;153.80;2252.80;;;;;;4917049;29;20028;-78
2021/01/29 03:49:57;;;;;;;10.68;6.32;;;153.80;2252.80;;;;;;4916833;29;20043;-84
2021/01/29 03:52:51;;;;;;;8.48;5.63;;;153.70;2252.80;;;;;;4916466;29;20070;-85
2021/01/29 03:55:34;;;;;;;7.90;5.80;;;153.70;2252.80;;;;;;4912785;29;20032;-86
2021/01/29 03:58:14;;;;;;;8.40;5.40;;;153.70;2252.80;;;;;;4915696;29;20039;-81
2021/01/29 04:01:00;;;;;;;8.38;5.22;;;153.60;2252.80;;;;;;4917517;29;20054;-83
2021/01/29 04:03:33;;;;;;;8.13;5.60;;;153.60;2252.80;;;;;;4910165;29;20034;-83
2021/01/29 04:06:01;;;;;;;8.18;5.60;;;153.60;2252.80;;;;;;4915866;29;20409;-83
2021/01/29 04:08:33;;;;;;;9.52;5.40;;;153.60;2252.80;;;;;;4917351;29;20032;-74
2021/01/29 04:11:01;;;;;;;7.85;5.40;;;153.70;2252.80;;;;;;4915809;29;20059;-77
2021/01/29 04:13:44;;;;;;;7.75;5.30;;;153.60;2252.80;;;;;;4916598;29;20477;-86
2021/01/29 04:16:37;;;;;;;8.20;5.50;;;153.70;2252.80;;;;;;4916288;29;20409;-82
2021/01/29 04:19:08;;;;;;;14.77;7.93;;;153.70;2252.80;;;;;;4840354;29;20049;-79
2021/01/29 04:21:44;;;;;;;16.48;8.70;;;153.70;2252.80;;;;;;4839184;29;20461;-82
2021/01/29 04:24:15;;;;;;;13.88;8.07;;;153.70;2252.80;;;;;;4840115;29;20046;-81
2021/01/29 04:26:56;;;;;;;8.82;5.97;;;153.70;2252.80;;;;;;4839659;29;20034;-82
2021/01/29 04:29:29;;;;;;;8.30;5.53;;;153.70;2227.20;;;;;;4839704;29;20041;-78
2021/01/29 04:32:04;;;;;;;9.80;5.75;;;153.70;2252.80;;;;;;4840202;29;20037;-84
2021/01/29 04:34:37;;;;;;;9.82;5.38;;;153.70;2252.80;;;;;;4832976;29;20038;-74
2021/01/29 04:37:08;;;;;;;11.40;6.93;;;153.70;2252.80;;;;;;4838843;29;20092;-85
2021/01/29 04:39:38;;;;;;;7.15;5.10;;;153.70;2252.80;;;;;;4840470;29;20086;-83
2021/01/29 04:42:34;;;;;;;7.13;4.80;;;153.60;2252.80;;;;;;4839083;29;20038;-75
2021/01/29 04:45:27;;;;;;;9.88;5.00;;;153.60;2252.80;;;;;;4829114;29;20503;-76
2021/01/29 04:47:59;;;;;;;7.30;4.78;;;153.70;2252.80;;;;;;4838383;29;20165;-83
2021/01/29 04:50:54;;;;;;;5.88;4.30;;;153.60;2252.80;;;;;;4839214;29;20073;-85
2021/01/29 04:53:53;;;;;;;7.78;4.63;;;153.60;2252.80;;;;;;4781889;30;20130;-84
2021/01/29 04:56:41;;;;;;;5.63;4.25;;;153.60;2252.80;;;;;;4814408;29;20064;-71
2021/01/29 04:59:22;;;;;;;6.75;4.13;;;153.70;2252.80;;;;;;4832369;29;20655;-77
2021/01/29 05:02:24;;;;;;;7.93;4.57;;;153.70;2252.80;;;;;;4834604;29;20034;-75
2021/01/29 05:05:38;;;;;;;5.63;4.07;;;153.70;2252.80;;;;;;4836113;29;20577;-75
2021/01/29 05:08:33;;;;;;;6.57;4.13;;;153.70;2252.80;;;;;;4765588;30;20047;-72
2021/01/29 05:11:30;;;;;;;5.43;3.90;;;153.70;2252.80;;;;;;4757650;30;20050;-73
2021/01/29 05:14:13;;;;;;;4.95;3.78;;;153.70;2252.80;;;;;;4760576;30;20513;-71
2021/01/29 05:17:03;;;;;;;5.70;4.35;;;153.70;2252.80;;;;;;4767746;30;20126;-70
2021/01/29 05:19:59;;;;;;;6.20;4.18;;;153.80;2252.80;;;;;;4767142;30;20052;-69
2021/01/29 05:23:07;;;;;;;6.25;4.18;;;153.80;2252.80;;;;;;4758666;30;20055;-70
2021/01/29 05:25:35;;;;;;;4.93;3.90;;;153.80;2252.80;;;;;;4764961;30;20040;-69
2021/01/29 05:28:13;;;;;;;6.10;3.90;;;153.80;2252.80;;;;;;4766698;30;20027;-78
2021/01/29 05:30:48;;;;;;;5.35;3.80;;;153.80;2252.80;;;;;;4825230;29;20067;-70
2021/01/29 05:33:50;;;;;;;4.85;3.35;;;153.90;2252.80;;;;;;4840002;29;20105;-70
2021/01/29 05:36:33;;;;;;;8.10;3.70;;;153.90;2252.80;;;;;;4839070;29;20067;-69
2021/01/29 05:39:38;;;;;;;4.97;3.23;;;154.00;2252.80;;;;;;4836136;29;20114;-69
2021/01/29 05:42:06;;;;;;;4.80;3.47;;;154.00;2252.80;;;;;;4786108;29;20560;-69
2021/01/29 05:44:53;;;;;;;4.75;3.22;;;154.00;2252.80;;;;;;4819498;29;20073;-77
2021/01/29 05:47:51;;;;;;;4.72;3.30;;;154.10;2252.80;;;;;;4843966;29;20042;-71
2021/01/29 05:50:51;;;;;;;5.57;3.92;;;154.10;2252.80;;;;;;4841740;29;20042;-70
2021/01/29 05:53:53;;;;;;;3.78;3.00;;;154.20;2252.80;;;;;;4840957;29;20570;-73
2021/01/29 05:56:27;;;;;;;4.47;3.20;;;154.20;2252.80;;;;;;4840027;29;20090;-71
2021/01/29 05:59:17;;;;;;;5.20;3.55;;;154.30;2252.80;;;;;;4838728;29;20065;-77
2021/01/29 06:02:04;;;;;;;4.20;2.90;;;154.30;2252.80;;;;;;4841123;29;20026;-87
2021/01/29 06:05:06;;;;;;;4.82;3.30;;;154.40;2252.80;;;;;;4841758;29;20081;-74
2021/01/29 06:07:44;;;;;;;6.65;3.50;;;154.40;2227.20;;;;;;4836783;29;20034;-72
2021/01/29 06:10:40;;;;;;;4.25;3.40;;;154.40;2227.20;;;;;;4839714;29;20048;-77
2021/01/29 06:13:31;;;;;;;5.03;3.58;;;154.40;2227.20;;;;;;4841404;29;20496;-82
2021/01/29 06:16:27;;;;;;;5.45;3.40;;;154.50;2227.20;;;;;;4826329;29;20522;-76
2021/01/29 06:19:14;;;;;;;13.48;7.43;;;154.50;2227.20;;;;;;4868128;29;20063;-79
2021/01/29 06:22:01;;;;;;;4.10;3.00;;;154.50;2201.60;;;;;;4918040;29;20036;-80
2021/01/29 06:24:46;;;;;;;4.45;3.20;;;179.20;2201.60;;;;;;4917408;29;20032;-85
2021/01/29 06:27:33;;;;;;;4.72;3.38;;;179.30;2201.60;;;;;;4911536;29;20030;-76
2021/01/29 06:30:29;;;;;;;4.75;3.25;;;179.30;2201.60;;;;;;4919615;29;20343;-82
2021/01/29 06:32:57;;;;;;;12.27;8.77;;;179.30;2201.60;;;;;;4917658;29;20505;-78
2021/01/29 06:35:41;;;;;;;20.38;13.50;;;179.30;2201.60;;;;;;4917635;29;20067;-78
2021/01/29 06:38:31;;;;;;;11.15;6.50;;;179.40;2201.60;;;;;;4919031;29;20040;-85
2021/01/29 06:41:21;;;;;;;8.63;5.80;;;179.40;2201.60;;;;;;4897059;29;20079;-85
2021/01/29 06:44:11;;;;;;;10.50;6.00;;;179.40;2227.20;;;;;;4917083;29;20039;-85
2021/01/29 06:47:14;;;;;;;6.03;4.07;;;179.40;2252.80;;;;;;4917259;29;20060;-81
2021/01/29 06:50:17;;;;;;;7.43;5.35;;;179.40;2252.80;;;;;;4915325;29;20068;-83
2021/01/29 06:53:23;;;;;;;8.13;4.38;;;179.50;2252.80;;;;;;4913346;29;20083;-84
2021/01/29 06:56:07;;;;;;;5.40;3.60;;;179.60;2252.80;;;;;;4915607;29;20439;-76
2021/01/29 06:58:42;;;;;;;6.00;4.20;;;179.60;2252.80;;;;;;4916171;29;20040;-76
2021/01/29 07:01:41;;;;;;;10.02;5.45;;;179.70;2227.20;;;;;;4914797;29;20470;-77
2021/01/29 07:04:25;;;;;;;4.90;3.55;;;179.80;2201.60;;;;;;4914008;29;20040;-77
2021/01/29 07:07:21;;;;;;;4.43;3.10;;;179.80;2201.60;;;;;;4916472;29;20091;-83
2021/01/29 07:10:07;;;;;;;4.10;2.70;;;179.90;2150.40;;;;;;4839388;29;20036;-76
2021/01/29 07:12:52;;;;;;;3.30;2.58;;;179.90;2176.00;;;;;;4830415;29;20039;-77
2021/01/29 07:15:18;;;;;;;4.78;2.95;;;179.90;2176.00;;;;;;4839755;29;20496;-76
2021/01/29 07:18:08;;;;;;;3.75;2.65;;;179.90;2176.00;;;;;;4838418;29;20530;-72
2021/01/29 07:20:39;;;;;;;3.45;2.60;;;180.00;2150.40;;;;;;4840032;29;20091;-81
2021/01/29 07:23:41;;;;;;;4.15;2.70;;;180.00;2124.80;;;;;;4838504;29;20045;-79
2021/01/29 07:26:25;;;;;;;3.53;3.05;;;180.10;2124.80;;;;;;4838879;29;20030;-73
2021/01/29 07:29:17;;;;;;;3.10;2.40;;;204.80;2124.80;;;;;;4839852;29;20029;-73
2021/01/29 07:31:45;;;;;;;6.13;2.70;;;204.90;2099.20;;;;;;4797166;29;20093;-73
2021/01/29 07:34:11;;;;;;;4.80;2.67;;;205.20;2048.00;;;;;;4790686;29;20624;-73
2021/01/29 07:37:03;;;;;;;2.88;2.58;;;205.40;2048.00;;;;;;4793629;29;20082;-75
2021/01/29 07:40:08;;;;;;;4.95;2.60;;;205.50;1996.80;;;;;;4788596;29;20051;-70
2021/01/29 07:43:13;;;;;;;3.78;2.67;;;205.70;1996.80;;;;;;4788270;29;20047;-71
2021/01/29 07:46:05;;;;;;;5.32;3.95;;;230.50;1971.20;;;;;;4793112;29;20101;-78
2021/01/29 07:48:56;;;;;;;6.53;4.13;;;230.70;1971.20;;;;;;4852178;29;20046;-80
2021/01/29 07:51:30;;;;;;;8.20;4.95;;;230.80;1920.00;;;;;;4857668;29;20103;-74
2021/01/29 07:54:07;;;;;;;6.80;4.50;;;230.80;1920.00;;;;;;4857870;29;20380;-78
2021/01/29 07:56:59;;;;;;;6.95;4.32;;;230.80;1920.00;;;;;;4857432;29;20102;-86
2021/01/29 07:59:46;;;;;;;8.57;6.10;;;230.80;1920.00;;;;;;4857698;29;20046;-88
2021/01/29 08:02:21;;;;;;;10.32;7.65;;;230.70;1920.00;;;;;;4857801;29;20041;-85
2021/01/29 08:05:00;;;;;;;22.08;12.98;;;230.70;1920.00;;;;;;4857481;29;20522;-79
2021/01/29 08:07:32;;;;;;;6.07;4.82;;;230.70;1945.60;;;;;;4858035;29;20040;-80
2021/01/29 08:10:02;;;;;;;7.68;5.38;;;230.80;1920.00;;;;;;4903598;29;20031;-81
2021/01/29 08:12:30;;;;;;;6.93;4.25;;;230.90;1920.00;;;;;;4915187;29;20036;-87
2021/01/29 08:17:54;;;;;;;5.05;3.40;;;231.00;1894.40;;;;;;4910501;29;20059;-73
2021/01/29 08:20:57;;;;;;;7.10;4.90;;;231.30;1843.20;;;;;;4891895;29;20095;-77
2021/01/29 08:23:28;;;;;;;5.47;3.67;;;256.00;1843.20;;;;;;4905096;29;20032;-77
2021/01/29 08:26:30;;;;;;;9.45;6.32;;;256.00;1817.60;;;;;;4915307;29;20035;-78
2021/01/29 08:29:29;;;;;;;10.55;6.03;;;256.00;1817.60;;;;;;4898911;29;20414;-80
2021/01/29 08:32:19;;;;;;;10.35;5.85;;;256.10;1843.20;;;;;;4902628;29;20088;-89
2021/01/29 08:35:08;;;;;;;7.78;4.68;;;256.00;1843.20;;;;;;4895777;29;20031;-78
2021/01/29 08:37:33;;;;;;;7.50;4.75;;;256.00;1843.20;;;;;;4893751;29;20059;-86
2021/01/29 08:40:17;;;;;;;5.78;4.10;;;256.00;1843.20;;;;;;4915332;29;20470;-86
2021/01/29 08:43:13;;;;;;;5.75;3.95;;;256.10;1843.20;;;;;;4912509;29;20486;-88
2021/01/29 08:46:06;;;;;;;4.60;3.33;;;256.00;1817.60;;;;;;4915930;29;20043;-85
2021/01/29 08:48:51;;;;;;;4.85;3.65;;;231.30;1843.20;;;;;;4896987;29;20464;-79
2021/01/29 08:51:30;;;;;;;4.45;3.10;;;231.30;1817.60;;;;;;4911740;29;20024;-88
2021/01/29 08:53:59;;;;;;;5.97;3.75;;;256.00;1817.60;;;;;;4915946;29;20024;-91
2021/01/29 08:56:28;;;;;;;11.27;7.50;;;231.30;1843.20;;;;;;4914856;29;20363;-83
2021/01/29 08:59:02;;;;;;;8.95;4.28;;;256.00;1843.20;;;;;;4913265;29;20048;-75
2021/01/29 09:01:39;;;;;;;13.18;7.13;;;256.00;1817.60;;;;;;4915273;29;20055;-71
2021/01/29 09:04:17;;;;;;;9.43;5.97;;;256.00;1817.60;;;;;;4913926;29;20490;-70
2021/01/29 09:06:45;;;;;;;7.07;3.97;;;256.10;1817.60;;;;;;4915025;29;20028;-70
2021/01/29 09:09:28;;;;;;;10.30;5.10;;;256.30;1792.00;;;;;;4915496;29;20028;-70
2021/01/29 09:11:58;;;;;;;17.10;11.50;;;256.50;1792.00;;;;;;4917081;29;20478;-70
2021/01/29 09:14:27;;;;;;;10.43;6.20;;;256.70;1740.80;;;;;;4909649;29;20044;-87
2021/01/29 09:17:07;;;;;;;9.05;5.15;;;256.80;1715.20;;;;;;4912415;29;20048;-85
2021/01/29 09:19:36;;;;;;;8.43;5.13;;;281.60;1740.80;;;;;;4917294;29;20382;-79
2021/01/29 09:22:43;;;;;;;18.63;8.48;;;281.60;1715.20;;;;;;4902125;29;20553;-84
2021/01/29 09:25:18;;;;;;;12.82;6.90;;;281.60;1715.20;;;;;;4914910;29;20514;-80
2021/01/29 09:28:07;;;;;;;10.95;3.95;;;281.70;1689.60;;;;;;4919613;29;20724;-83
2021/01/29 09:30:38;;;;;;;14.63;7.32;;;281.80;1689.60;;;;;;4905581;29;20117;-85
2021/01/29 09:33:25;;;;;;;17.38;7.03;;;281.70;1689.60;;;;;;4916651;29;20397;-85
2021/01/29 09:35:52;;;;;;;24.90;13.43;;;281.70;1689.60;;;;;;4918319;29;20529;-88
2021/01/29 09:38:26;;;;;;;15.00;8.43;;;281.60;1715.20;;;;;;4917600;29;20047;-86
2021/01/29 09:41:00;;;;;;;12.77;7.53;;;281.70;1740.80;;;;;;4917720;29;20056;-85
2021/01/29 09:43:49;;;;;;;8.55;5.05;;;281.80;1715.20;;;;;;4918620;29;20111;-88
2021/01/29 09:46:24;;;;;;;8.40;4.22;;;281.80;1715.20;;;;;;4928433;29;20847;-88
2021/01/29 09:48:56;;;;;;;9.52;5.43;;;281.90;1715.20;;;;;;4917983;29;20111;-85
2021/01/29 09:51:30;;;;;;;12.43;5.93;;;282.00;1689.60;;;;;;4926705;29;20028;-76
2021/01/29 09:54:00;;;;;;;;;;;282.10;1689.60;;;;;;4919215;29;20028;-86
2021/01/29 09:56:30;;;;;;;8.25;6.00;;;282.20;1689.60;;;;;;4913079;29;20340;-81
2021/01/29 09:59:20;;;;;;;9.32;6.32;;;282.10;1689.60;;;;;;4918769;29;20044;-94
2021/01/29 10:02:27;;;;;;;10.40;5.00;;;282.20;1715.20;;;;;;4919313;29;20028;-92
2021/01/29 10:05:05;;;;;;;9.48;5.78;;;282.30;1689.60;;;;;;4902227;29;20092;-93
2021/01/29 10:07:34;;;;;;;14.63;5.68;;;282.30;1664.00;;;;;;4919097;29;20042;-92
2021/01/29 10:10:03;;;;;;;9.00;5.50;;;282.30;1715.20;;;;;;4902473;29;20070;-92
2021/01/29 10:12:30;;;;;;;11.23;5.82;;;282.50;1689.60;;;;;;4898376;29;20032;-75
2021/01/29 10:15:16;;;;;;;18.08;7.78;;;282.40;1689.60;;;;;;4917974;29;20054;-73
2021/01/29 10:17:57;;;;;;;38.88;7.32;;;307.20;1664.00;;;;;;4914551;29;20056;-88
2021/01/29 10:20:29;;;;;;;9.52;4.72;;;307.30;1689.60;;;;;;4931615;29;20389;-76
2021/01/29 10:23:22;;;;;;;13.45;7.50;;;307.20;1664.00;;;;;;4923485;29;20430;-82
2021/01/29 10:26:04;;;;;;;18.33;8.30;;;307.20;1689.60;;;;;;4916292;29;20016;-83
2021/01/29 10:28:50;;;;;;;27.13;20.73;;;282.50;1638.40;;;;;;4918531;29;20401;-85
2021/01/29 10:31:20;;;;;;;32.63;21.63;;;282.50;1664.00;;;;;;4918002;29;20028;-82
2021/01/29 10:33:49;;;;;;;18.25;6.03;;;307.20;1715.20;;;;;;4916572;29;20039;-79
2021/01/29 10:36:31;;;;;;;19.90;5.40;;;307.20;1664.00;;;;;;4918548;29;20377;-83
2021/01/29 10:39:06;;;;;;;16.30;5.40;;;307.30;1612.80;;;;;;4916319;29;20039;-82
2021/01/29 10:41:47;;;;;;;14.52;5.38;;;307.30;1664.00;;;;;;4917588;29;20025;-85
2021/01/29 10:44:16;;;;;;;22.85;6.18;;;307.40;1612.80;;;;;;4910034;29;20112;-81
2021/01/29 10:46:53;;;;;;;13.80;5.38;;;307.40;1664.00;;;;;;4917388;29;20035;-85
2021/01/29 10:49:34;;;;;;;15.95;5.47;;;307.40;1612.80;;;;;;4908640;29;20594;-74
2021/01/29 10:52:30;;;;;;;14.90;5.13;;;307.40;1612.80;;;;;;4916330;29;20024;-77
2021/01/29 10:54:57;;;;;;;13.15;5.43;;;307.40;1612.80;;;;;;4916049;29;20055;-81
2021/01/29 10:57:41;;;;;;;20.83;6.38;;;307.40;1612.80;;;;;;4916173;29;20048;-92
2021/01/29 11:00:19;;;;;;;21.63;7.78;;;307.40;1612.80;;;;;;5019013;23;20121;-82
2021/01/29 11:03:00;;;;;;;20.80;7.93;;;307.50;1612.80;;;;;;4918644;29;20040;-86
2021/01/29 11:05:29;;;;;;;22.30;7.97;;;307.50;1561.60;;;;;;4922592;29;20038;-85
2021/01/29 11:08:19;;;;;;;24.38;6.47;;;307.70;1561.60;;;;;;4933313;29;20539;-76
2021/01/29 11:11:00;;;;;;;13.02;4.60;;;307.90;1561.60;;;;;;4902872;29;20076;-80
2021/01/29 11:13:49;;;;;;;25.05;5.90;;;308.10;1536.00;;;;;;4933923;29;20042;-81
2021/01/29 11:16:19;;;;;;;14.98;8.27;;;333.00;1536.00;;;;;;4867586;29;20467;-82
2021/01/29 11:19:00;;;;;;;24.65;14.07;;;333.10;1536.00;;;;;;4858823;29;20081;-86
2021/01/29 11:22:03;;;;;;;13.07;4.65;;;333.20;1459.20;;;;;;4856211;29;20439;-86
2021/01/29 11:24:56;;;;;;;18.83;5.45;;;333.20;1459.20;;;;;;4858515;29;20391;-83
2021/01/29 11:27:38;;;;;;;12.52;4.95;;;333.20;1459.20;;;;;;4852896;29;20071;-84
2021/01/29 11:30:19;;;;;;;21.52;6.93;;;333.20;1459.20;;;;;;4856785;29;20064;-84
2021/01/29 11:32:54;;;;;;;15.93;7.85;;;333.20;1484.80;;;;;;4858578;29;20029;-77
2021/01/29 11:35:31;;;;;;;14.80;4.55;;;333.20;1459.20;;;;;;4868476;29;20037;-80
2021/01/29 11:37:58;;;;;;;25.35;6.70;;;333.20;1408.00;;;;;;4856720;29;20041;-81
2021/01/29 11:40:29;;;;;;;18.85;6.50;;;333.30;1484.80;;;;;;4841224;29;20076;-79
2021/01/29 11:43:13;;;;;;;12.95;6.10;;;333.30;1484.80;;;;;;4855184;29;20033;-85
2021/01/29 11:45:46;;;;;;;12.93;6.05;;;333.40;1459.20;;;;;;4850601;29;20508;-85
2021/01/29 11:48:38;;;;;;;12.88;6.40;;;333.50;1459.20;;;;;;4856476;29;20033;-82
2021/01/29 11:51:30;;;;;;;34.58;15.55;;;333.60;1382.40;;;;;;4856630;29;20492;-83
2021/01/29 11:54:09;;;;;;;41.58;18.90;;;333.60;1408.00;;;;;;4901942;29;20040;-83
2021/01/29 11:56:44;;;;;;;36.95;19.05;;;333.60;1459.20;;;;;;4913848;29;20044;-90
2021/01/29 11:59:43;;;;;;;42.30;19.75;;;333.50;1433.60;;;;;;4915372;29;20068;-79
2021/01/29 12:02:38;;;;;;;26.50;11.68;;;333.40;1408.00;;;;;;4910327;29;20091;-84
2021/01/29 12:05:25;;;;;;;30.08;12.40;;;333.40;1433.60;;;;;;4906037;29;20110;-90
2021/01/29 12:08:27;;;;;;;26.98;13.88;;;333.40;1484.80;;;;;;4913569;29;20033;-87
2021/01/29 12:11:13;;;;;;;44.50;20.42;;;333.30;1484.80;;;;;;4909213;29;20020;-88
2021/01/29 12:14:02;;;;;;;58.10;21.52;;;333.20;1484.80;;;;;;4916770;29;20052;-85
2021/01/29 12:16:30;;;;;;;25.85;14.95;;;333.20;1510.40;;;;;;4839976;29;20825;-91
2021/01/29 12:19:16;;;;;;;46.95;23.77;;;333.10;1459.20;;;;;;4844915;29;20084;-81
2021/01/29 12:22:10;;;;;;;29.77;16.58;;;333.00;1510.40;;;;;;4846999;29;20049;-82
2021/01/29 12:24:50;;;;;;;29.27;16.77;;;333.00;1510.40;;;;;;4830111;29;20042;-82
2021/01/29 12:27:24;;;;;;;26.50;14.65;;;333.00;1536.00;;;;;;4840317;29;20050;-80
2021/01/29 12:30:18;;;;;;;37.03;18.23;;;332.90;1510.40;;;;;;4850492;29;20120;-84
2021/01/29 12:33:03;;;;;;;30.85;18.90;;;332.80;1536.00;;;;;;4850855;29;20037;-76
2021/01/29 12:35:47;;;;;;;19.10;9.05;;;332.90;1561.60;;;;;;4838088;29;20035;-76
2021/01/29 12:38:21;;;;;;;13.75;6.88;;;332.80;1510.40;;;;;;4838367;29;20057;-91
2021/01/29 12:41:06;;;;;;;18.98;9.57;;;332.80;1510.40;;;;;;4840620;29;20568;-89
2021/01/29 12:43:37;;;;;;;40.85;10.82;;;332.80;1484.80;;;;;;4826990;29;20042;-87
2021/01/29 12:46:15;;;;;;;22.35;9.77;;;332.80;1510.40;;;;;;4854642;29;20117;-85
2021/01/29 12:48:56;;;;;;;32.53;15.50;;;332.80;1536.00;;;;;;4838769;29;20030;-79
2021/01/29 12:51:31;;;;;;;37.92;19.80;;;332.80;1536.00;;;;;;4839805;29;20117;-86
2021/01/29 12:54:06;;;;;;;34.05;19.98;;;332.80;1536.00;;;;;;4889376;29;20175;-82
2021/01/29 12:56:38;;;;;;;28.95;16.42;;;308.10;1510.40;;;;;;4915526;29;20442;-75
2021/01/29 12:59:08;;;;;;;38.03;21.05;;;308.10;1510.40;;;;;;4914837;29;20397;-82
2021/01/29 13:01:34;;;;;;;30.60;17.70;;;308.10;1536.00;;;;;;4918975;29;20048;-74
2021/01/29 13:04:18;;;;;;;38.72;21.33;;;308.00;1536.00;;;;;;4918543;29;20032;-82
2021/01/29 13:06:56;;;;;;;49.88;24.85;;;308.00;1561.60;;;;;;4916710;29;20028;-84
2021/01/29 13:09:33;;;;;;;80.32;41.90;;;308.00;1561.60;;;;;;4918783;29;20032;-81
2021/01/29 13:12:24;;;;;;;49.10;25.35;;;307.90;1561.60;;;;;;4918724;29;20024;-84
2021/01/29 13:15:36;;;;;;;57.22;34.92;;;307.90;1561.60;;;;;;4914984;29;20036;-73
2021/01/29 13:18:14;;;;;;;33.72;20.95;;;307.80;1561.60;;;;;;4821871;29;20061;-74